Terminal Aerodrome Forecast
Issued by NWS

Home | Current Version | Previous Version | Text Only | Print | Product List | Glossary On
Versions: 1 2 3 4 5 6 7 8 9 10 11 12 13 14 15 16 17 18 19 20 21 22 23 24 25 26 27 28 29 30 31 32 33 34 35 36
000
FTUS43 KDMX 252054 AAD
TAFMCW
TAF AMD
KMCW 252054Z 2521/2618 34005KT P6SM SCT010
     FM252300 31005KT 4SM -TSRA BKN010CB
     FM260500 26004KT 4SM -SHRA OVC005
     FM261200 28006KT P6SM OVC005
     FM261600 31009KT P6SM OVC010=

USA.gov is the U.S. government's official web portal to all federal, state and local government web resources and services.